Aviation Digital Data Service (ADDS)

Output produced by METARs form (2115 UTC 22 November 2014)
found at http://aviationweather.gov/adds/metars/
 
KGSP 221729Z 2218/2318 13004KT P6SM FEW250 
     FM230200 04004KT P6SM BKN100 
     FM231100 04007KT P6SM -RA OVC050 
     FM231300 04008KT P6SM -RA OVC017 
     FM231500 04008KT 5SM RA BR OVC008